Time;durP1;ratioP1;P1;durP2;ratioP2;P2;SDS_P1;SDS_P2;PMS_P1;PMS_P2;Temp;Humidity;BMP_temperature;BMP_pressure;BME280_temperature;BME280_humidity;BME280_pressure;Samples;Min_cycle;Max_cycle;Signal;HPM_P1;HPM_P2
2024/01/09 00:00:14;;;;;;;2.00;0.50;;;;;;;-6.78;100.00;99664.69;5112145;28;20815;-59
2024/01/09 00:02:40;;;;;;;1.57;1.30;;;;;;;-6.75;100.00;99663.06;5111905;28;20451;-60
2024/01/09 00:05:08;;;;;;;6.73;3.13;;;;;;;-6.85;100.00;99663.81;5112095;27;20450;-59
2024/01/09 00:07:36;;;;;;;4.43;1.43;;;;;;;-6.89;100.00;99672.09;5112194;28;20443;-60
2024/01/09 00:10:04;;;;;;;3.07;1.27;;;;;;;-6.84;100.00;99675.44;5111971;28;20462;-59
2024/01/09 00:12:30;;;;;;;4.17;2.67;;;;;;;-6.85;100.00;99684.53;5111611;28;20627;-59
2024/01/09 00:14:57;;;;;;;1.73;1.50;;;;;;;-6.76;100.00;99683.78;5111840;28;20451;-59
2024/01/09 00:17:24;;;;;;;4.13;2.83;;;;;;;-6.80;100.00;99689.56;5111577;28;20451;-59
2024/01/09 00:19:51;;;;;;;3.40;1.70;;;;;;;-6.75;100.00;99697.88;5111658;28;20439;-59
2024/01/09 00:22:17;;;;;;;11.60;4.97;;;;;;;-6.83;100.00;99701.97;5111487;28;20447;-59
2024/01/09 00:24:46;;;;;;;10.00;3.83;;;;;;;-6.91;100.00;99706.03;5111442;28;20543;-59
2024/01/09 00:27:12;;;;;;;1.03;0.97;;;;;;;-6.86;100.00;99701.94;5111898;28;20454;-59
2024/01/09 00:29:39;;;;;;;3.83;1.93;;;;;;;-6.83;100.00;99706.94;5111353;28;20474;-60
2024/01/09 00:32:06;;;;;;;10.43;4.93;;;;;;;-6.87;100.00;99711.03;5111244;28;21016;-59
2024/01/09 00:34:33;;;;;;;0.70;0.70;;;;;;;-6.82;100.00;99712.75;5111632;28;20447;-60
2024/01/09 00:37:00;;;;;;;8.50;4.03;;;;;;;-6.85;100.00;99708.56;5111306;28;20462;-60
2024/01/09 00:39:26;;;;;;;1.90;1.53;;;;;;;-6.89;100.00;99720.16;5111353;28;20447;-60
2024/01/09 00:41:54;;;;;;;4.33;2.67;;;;;;;-6.90;100.00;99720.13;5111107;28;20454;-60
2024/01/09 00:44:21;;;;;;;5.50;2.93;;;;;;;-6.95;100.00;99722.59;5110915;28;20454;-60
2024/01/09 00:46:48;;;;;;;4.27;3.17;;;;;;;-6.96;100.00;99730.03;5111141;28;20454;-60
2024/01/09 00:49:15;;;;;;;1.33;1.07;;;;;;;-6.96;100.00;99730.03;5110893;28;20843;-59
2024/01/09 00:51:42;;;;;;;0.97;0.93;;;;;;;-7.03;100.00;99738.25;5110430;27;20486;-59
2024/01/09 00:54:08;;;;;;;3.93;1.77;;;;;;;-7.14;100.00;99734.00;5111080;28;20439;-59
2024/01/09 00:56:35;;;;;;;8.67;3.40;;;;;;;-7.10;100.00;99740.69;5109417;28;21027;-60
2024/01/09 00:59:03;;;;;;;1.47;1.37;;;;;;;-7.07;100.00;99738.22;5109730;28;20443;-59
2024/01/09 01:01:30;;;;;;;0.77;0.77;;;;;;;-6.94;100.00;99738.34;5110292;28;20480;-60
2024/01/09 01:03:57;;;;;;;0.53;0.53;;;;;;;-6.92;100.00;99741.63;5110804;28;20761;-60
2024/01/09 01:06:24;;;;;;;5.53;2.97;;;;;;;-7.00;100.00;99743.25;5110680;28;20458;-60
2024/01/09 01:08:50;;;;;;;5.10;2.50;;;;;;;-7.03;100.00;99750.69;5110398;28;20467;-60
2024/01/09 01:11:17;;;;;;;3.47;1.90;;;;;;;-7.06;100.00;99752.31;5110683;28;20992;-60
2024/01/09 01:13:44;;;;;;;0.70;0.70;;;;;;;-7.13;100.00;99753.03;5110832;28;20517;-60
2024/01/09 01:16:12;;;;;;;2.47;1.80;;;;;;;-7.15;100.00;99754.72;5110431;28;20463;-59
2024/01/09 01:18:40;;;;;;;1.00;1.00;;;;;;;-7.12;100.00;99754.72;5110523;28;20451;-60
2024/01/09 01:21:06;;;;;;;2.23;1.93;;;;;;;-7.21;100.00;99759.63;5110687;28;20439;-59
2024/01/09 01:23:33;;;;;;;4.27;2.07;;;;;;;-7.18;100.00;99757.16;5110436;28;20447;-59
2024/01/09 01:26:00;;;;;;;4.07;1.00;;;;;;;-7.25;100.00;99767.84;5110485;28;20984;-59
2024/01/09 01:28:27;;;;;;;12.73;2.53;;;;;;;-7.22;100.00;99770.34;5110213;28;20447;-59
2024/01/09 01:30:54;;;;;;;2.80;1.87;;;;;;;-7.16;100.00;99767.94;5110642;28;20808;-59
2024/01/09 01:33:22;;;;;;;3.80;2.57;;;;;;;-7.24;100.00;99764.56;5110627;28;20498;-59
2024/01/09 01:35:49;;;;;;;2.00;1.57;;;;;;;-7.32;100.00;99766.94;5110343;28;20443;-59
2024/01/09 01:38:16;;;;;;;5.67;1.73;;;;;;;-7.23;100.00;99770.34;5110018;28;20952;-60
2024/01/09 01:40:43;;;;;;;1.20;1.10;;;;;;;-7.26;100.00;99765.34;5110112;28;20467;-59
2024/01/09 01:43:10;;;;;;;2.90;1.60;;;;;;;-7.25;100.00;99772.81;5109920;28;20439;-59
2024/01/09 01:45:36;;;;;;;0.97;0.90;;;;;;;-7.26;100.00;99766.19;5110187;28;20442;-60
2024/01/09 01:48:04;;;;;;;3.87;2.20;;;;;;;-7.32;100.00;99768.59;5110205;28;20446;-59
2024/01/09 01:50:34;;;;;;;6.27;2.27;;;;;;;-7.28;100.00;99762.84;5110002;28;21025;-59
2024/01/09 01:53:02;;;;;;;4.33;1.63;;;;;;;-7.36;100.00;99771.84;5109689;28;20876;-59
2024/01/09 01:55:30;;;;;;;3.30;0.83;;;;;;;-7.41;100.00;99775.97;5110164;28;20454;-59
2024/01/09 01:57:59;;;;;;;2.83;1.93;;;;;;;-7.40;100.00;99773.47;5110109;28;20447;-59
2024/01/09 02:00:27;;;;;;;3.80;3.50;;;;;;;-7.47;100.00;99778.38;5109420;28;20435;-59
2024/01/09 02:02:55;;;;;;;3.97;2.77;;;;;;;-7.51;100.00;99788.25;5108621;28;20454;-59
2024/01/09 02:05:25;;;;;;;5.27;3.60;;;;;;;-7.43;100.00;99787.50;5109763;28;20451;-59
2024/01/09 02:07:54;;;;;;;1.27;1.17;;;;;;;-7.48;100.00;99789.09;5109453;28;20541;-59
2024/01/09 02:10:21;;;;;;;2.73;1.83;;;;;;;-7.49;100.00;99787.44;5109267;28;20447;-59
2024/01/09 02:12:48;;;;;;;4.10;1.80;;;;;;;-7.48;100.00;99796.56;5109325;28;20530;-59
2024/01/09 02:15:15;;;;;;;1.37;1.13;;;;;;;-7.52;100.00;99799.00;5109352;28;20447;-60
2024/01/09 02:17:42;;;;;;;0.60;0.50;;;;;;;-7.47;100.00;99805.69;5109507;28;20443;-59
2024/01/09 02:20:10;;;;;;;0.60;0.60;;;;;;;-7.56;100.00;99797.31;5109596;28;20478;-59
2024/01/09 02:22:37;;;;;;;1.07;1.07;;;;;;;-7.45;100.00;99799.06;5109443;28;20447;-60
2024/01/09 02:25:06;;;;;;;4.03;2.87;;;;;;;-7.47;100.00;99800.72;5109408;28;20467;-59
2024/01/09 02:27:42;;;;;;;1.10;1.07;;;;;;;-7.49;100.00;99807.31;5109724;28;20447;-60
2024/01/09 02:30:11;;;;;;;4.50;2.17;;;;;;;-7.48;100.00;99804.00;5109146;28;20488;-59
2024/01/09 02:32:39;;;;;;;1.33;1.23;;;;;;;-7.53;100.00;99801.47;5109007;28;20487;-60
2024/01/09 02:35:06;;;;;;;4.07;1.37;;;;;;;-7.52;100.00;99803.97;5109145;28;20473;-59
2024/01/09 02:37:33;;;;;;;0.63;0.63;;;;;;;-7.46;100.00;99802.38;5109248;28;20459;-60
2024/01/09 02:40:00;;;;;;;2.03;1.30;;;;;;;-7.45;100.00;99816.44;5108886;28;20489;-60
2024/01/09 02:42:27;;;;;;;0.17;0.17;;;;;;;-7.44;100.00;99815.66;5109096;28;20451;-59
2024/01/09 02:44:55;;;;;;;2.80;2.00;;;;;;;-7.55;100.00;99818.81;5109073;28;20454;-60
2024/01/09 02:47:23;;;;;;;2.60;1.33;;;;;;;-7.49;100.00;99818.06;5108873;28;20948;-59
2024/01/09 02:49:50;;;;;;;3.10;1.33;;;;;;;-7.39;100.00;99817.34;5109139;28;20462;-60
2024/01/09 02:52:17;;;;;;;2.17;1.67;;;;;;;-7.37;100.00;99817.38;5109128;28;20470;-59
2024/01/09 02:54:44;;;;;;;4.00;2.60;;;;;;;-7.36;100.00;99828.97;5108664;28;20860;-59
2024/01/09 02:57:12;;;;;;;1.50;1.27;;;;;;;-7.42;100.00;99836.34;5109447;28;20462;-60
2024/01/09 02:59:39;;;;;;;1.27;0.87;;;;;;;-7.33;100.00;99843.91;5108784;28;20450;-60
2024/01/09 03:02:06;;;;;;;1.50;1.07;;;;;;;-7.42;100.00;99839.66;5108899;28;20447;-60
2024/01/09 03:04:34;;;;;;;0.97;0.97;;;;;;;-7.30;100.00;99838.97;5108598;28;20443;-60
2024/01/09 03:07:01;;;;;;;0.47;0.47;;;;;;;-7.41;100.00;99843.00;5109015;28;20439;-59
2024/01/09 03:09:28;;;;;;;5.30;3.57;;;;;;;-7.45;100.00;99844.59;5108957;28;20455;-60
2024/01/09 03:11:55;;;;;;;1.03;1.00;;;;;;;-7.35;100.00;99851.38;5108459;28;20877;-59
2024/01/09 03:14:21;;;;;;;1.70;1.23;;;;;;;-7.28;100.00;99852.25;5110731;28;20486;-60
2024/01/09 03:16:48;;;;;;;0.47;0.47;;;;;;;-7.32;100.00;99855.53;5112756;28;20450;-59
2024/01/09 03:19:15;;;;;;;2.17;1.97;;;;;;;-7.31;100.00;99852.22;5112650;28;20439;-59
2024/01/09 03:21:44;;;;;;;1.50;1.40;;;;;;;-7.35;100.00;99862.97;5113051;28;20439;-59
2024/01/09 03:24:10;;;;;;;0.43;0.30;;;;;;;-7.26;100.00;99863.06;5112730;28;20968;-59
2024/01/09 03:26:37;;;;;;;3.93;2.00;;;;;;;-7.42;100.00;99867.00;5113169;28;20450;-59
2024/01/09 03:29:04;;;;;;;2.27;1.50;;;;;;;-7.54;100.00;99865.19;5112538;28;20461;-59
2024/01/09 03:31:31;;;;;;;2.33;1.30;;;;;;;-7.49;100.00;99871.88;5112848;27;20443;-59
2024/01/09 03:33:58;;;;;;;4.83;3.03;;;;;;;-7.45;100.00;99883.50;5112402;27;20501;-59
2024/01/09 03:36:25;;;;;;;7.50;3.27;;;;;;;-7.51;100.00;99877.63;5112475;28;20461;-60
2024/01/09 03:38:55;;;;;;;3.30;1.70;;;;;;;-7.47;100.00;99890.13;5112439;28;20454;-59
2024/01/09 03:41:22;;;;;;;0.77;0.53;;;;;;;-7.58;100.00;99893.28;5112372;28;20481;-59
2024/01/09 03:43:49;;;;;;;4.80;1.90;;;;;;;-7.57;100.00;99889.16;5112407;28;20544;-59
2024/01/09 03:46:16;;;;;;;0.73;0.73;;;;;;;-7.59;100.00;99891.63;5112242;28;20465;-59
2024/01/09 03:48:43;;;;;;;0.53;0.53;;;;;;;-7.44;100.00;99900.09;5112138;28;20491;-60
2024/01/09 03:51:10;;;;;;;3.73;3.03;;;;;;;-7.48;100.00;99898.38;5112687;28;20857;-60
2024/01/09 03:53:36;;;;;;;0.80;0.80;;;;;;;-7.48;100.00;99900.84;5112100;28;20493;-60
2024/01/09 03:56:05;;;;;;;0.50;0.50;;;;;;;-7.38;100.00;99905.16;5112463;28;20493;-59
2024/01/09 03:58:32;;;;;;;0.93;0.80;;;;;;;-7.49;100.00;99922.38;5112284;28;20816;-60
2024/01/09 04:00:59;;;;;;;2.37;1.40;;;;;;;-7.57;100.00;99913.97;5112220;28;20955;-60
2024/01/09 04:03:26;;;;;;;1.90;1.17;;;;;;;-7.54;100.00;99917.31;5112165;28;20457;-59
2024/01/09 04:05:53;;;;;;;0.20;0.20;;;;;;;-7.37;100.00;99921.72;5112190;28;20896;-60
2024/01/09 04:08:20;;;;;;;1.40;1.27;;;;;;;-7.39;100.00;99923.31;5111741;27;20435;-60
2024/01/09 04:10:47;;;;;;;1.33;1.03;;;;;;;-7.49;100.00;99921.53;5111812;28;20966;-60
2024/01/09 04:13:15;;;;;;;1.07;0.83;;;;;;;-7.34;100.00;99926.72;5111713;28;20497;-59
2024/01/09 04:15:42;;;;;;;2.57;1.50;;;;;;;-7.40;100.00;99929.13;5111879;28;20450;-60
2024/01/09 04:18:09;;;;;;;0.70;0.70;;;;;;;-7.38;100.00;99925.84;5111877;28;20439;-60
2024/01/09 04:20:36;;;;;;;3.40;3.10;;;;;;;-7.35;100.00;99930.84;5111718;28;20454;-59
2024/01/09 04:23:03;;;;;;;4.50;2.10;;;;;;;-7.33;100.00;99935.81;5111775;28;20685;-60
2024/01/09 04:25:29;;;;;;;12.30;5.03;;;;;;;-7.39;100.00;99943.19;5110690;28;20451;-60
2024/01/09 04:27:56;;;;;;;0.87;0.80;;;;;;;-7.38;100.00;99960.63;5111338;27;20439;-59
2024/01/09 04:30:26;;;;;;;1.27;1.17;;;;;;;-7.32;100.00;99957.38;5111827;28;20462;-60
2024/01/09 04:32:53;;;;;;;0.67;0.67;;;;;;;-7.32;100.00;99964.84;5111662;28;20856;-59
2024/01/09 04:35:19;;;;;;;1.07;0.97;;;;;;;-7.39;100.00;99973.00;5111295;28;20446;-60
2024/01/09 04:37:46;;;;;;;3.80;2.27;;;;;;;-7.46;100.00;99981.19;5111716;28;20450;-60
2024/01/09 04:40:13;;;;;;;4.43;2.33;;;;;;;-7.51;100.00;99994.34;5111195;28;20455;-59
2024/01/09 04:42:40;;;;;;;13.30;5.10;;;;;;;-7.51;100.00;99994.34;5110956;28;20454;-59
2024/01/09 04:45:07;;;;;;;5.20;3.27;;;;;;;-7.41;100.00;99999.50;5111168;28;20453;-59
2024/01/09 04:47:35;;;;;;;8.33;3.13;;;;;;;-7.42;100.00;100007.72;5111234;28;20444;-59
2024/01/09 04:50:02;;;;;;;1.37;0.93;;;;;;;-7.39;100.00;100012.75;5111205;28;20478;-59
2024/01/09 04:52:29;;;;;;;1.37;1.27;;;;;;;-7.43;100.00;100016.00;5111255;28;20447;-59
2024/01/09 04:54:56;;;;;;;13.20;5.73;;;;;;;-7.51;100.00;100021.66;5110863;28;20491;-60
2024/01/09 04:57:23;;;;;;;1.43;1.33;;;;;;;-7.29;100.00;100032.78;5111143;27;20447;-59
2024/01/09 04:59:50;;;;;;;0.60;0.60;;;;;;;-7.28;100.00;100026.16;5111044;28;20455;-59
2024/01/09 05:02:16;;;;;;;5.93;2.93;;;;;;;-7.25;100.00;100023.72;5111074;28;20447;-59
2024/01/09 05:04:45;;;;;;;1.07;0.97;;;;;;;-7.31;100.00;100026.13;5110867;28;20443;-59
2024/01/09 05:07:12;;;;;;;0.10;0.10;;;;;;;-7.20;100.00;100036.22;5110888;28;20455;-59
2024/01/09 05:09:39;;;;;;;2.10;1.00;;;;;;;-7.26;100.00;100033.66;5110789;27;20443;-60
2024/01/09 05:12:06;;;;;;;2.30;1.47;;;;;;;-7.32;100.00;100044.34;5110886;28;20444;-59
2024/01/09 05:14:33;;;;;;;0.30;0.30;;;;;;;-7.34;100.00;100054.22;5110580;28;21041;-59
2024/01/09 05:16:59;;;;;;;5.20;2.30;;;;;;;-7.31;100.00;100059.25;5110923;28;20450;-59
2024/01/09 05:19:26;;;;;;;4.33;2.57;;;;;;;-7.31;100.00;100070.84;5110505;28;20549;-59
2024/01/09 05:21:55;;;;;;;1.00;1.00;;;;;;;-7.30;100.00;100077.47;5110455;28;20960;-60
2024/01/09 05:24:21;;;;;;;3.43;2.13;;;;;;;-7.27;100.00;100077.53;5110266;28;20447;-60
2024/01/09 05:26:49;;;;;;;2.53;2.33;;;;;;;-7.24;100.00;100085.03;5110287;28;20471;-60
2024/01/09 05:29:15;;;;;;;1.90;1.80;;;;;;;-7.26;100.00;100079.19;5110416;28;20454;-60
2024/01/09 05:31:44;;;;;;;0.20;0.20;;;;;;;-7.16;100.00;100081.00;5110265;28;20454;-59
2024/01/09 05:34:10;;;;;;;2.43;1.90;;;;;;;-7.22;100.00;100085.88;5110312;28;20903;-59
2024/01/09 05:36:37;;;;;;;0.67;0.67;;;;;;;-7.19;100.00;100085.09;5110342;28;20444;-59
2024/01/09 05:39:06;;;;;;;0.63;0.63;;;;;;;-7.13;100.00;100091.00;5110576;28;20458;-60
2024/01/09 05:41:32;;;;;;;7.27;2.07;;;;;;;-7.07;100.00;100086.13;5110158;27;20835;-59
2024/01/09 05:43:59;;;;;;;0.10;0.10;;;;;;;-7.15;100.00;100102.56;5110420;28;20443;-60
2024/01/09 05:46:26;;;;;;;4.87;2.63;;;;;;;-7.24;100.00;100092.50;5109853;28;20451;-60
2024/01/09 05:48:53;;;;;;;1.07;0.70;;;;;;;-7.29;100.00;100089.09;5109992;28;20439;-59
2024/01/09 05:51:19;;;;;;;1.30;1.20;;;;;;;-7.27;100.00;100097.41;5110054;27;20462;-60
2024/01/09 05:53:47;;;;;;;1.50;1.47;;;;;;;-7.15;100.00;100110.03;5109708;28;20487;-59
2024/01/09 05:56:15;;;;;;;1.83;1.13;;;;;;;-7.14;100.00;100109.22;5110233;28;20447;-59
2024/01/09 05:58:42;;;;;;;7.93;3.30;;;;;;;-7.22;100.00;100105.75;5109713;28;20891;-59
2024/01/09 06:01:09;;;;;;;0.70;0.50;;;;;;;-7.18;100.00;100112.47;5109953;28;20443;-60
2024/01/09 06:03:35;;;;;;;3.53;1.50;;;;;;;-7.07;100.00;100115.97;5109760;28;20459;-60
2024/01/09 06:06:02;;;;;;;1.43;0.93;;;;;;;-7.10;100.00;100117.53;5109643;28;20455;-59
2024/01/09 06:08:29;;;;;;;0.13;0.13;;;;;;;-7.08;100.00;100121.72;5109484;28;20450;-59
2024/01/09 06:10:56;;;;;;;0.50;0.50;;;;;;;-7.08;100.00;100114.25;5109757;28;21022;-59
2024/01/09 06:13:24;;;;;;;4.13;2.93;;;;;;;-7.12;100.00;100117.53;5109599;28;20495;-59
2024/01/09 06:15:51;;;;;;;5.93;3.30;;;;;;;-7.08;100.00;100114.25;5109354;28;20947;-59
2024/01/09 06:18:17;;;;;;;1.03;0.97;;;;;;;-6.97;100.00;100111.13;5109583;28;20447;-59
2024/01/09 06:20:44;;;;;;;5.20;2.77;;;;;;;-7.01;100.00;100116.84;5109287;28;20453;-59
2024/01/09 06:23:11;;;;;;;2.03;1.20;;;;;;;-7.00;100.00;100113.56;5109369;28;20451;-59
2024/01/09 06:25:38;;;;;;;1.20;0.40;;;;;;;-7.00;100.00;100121.03;5109232;28;20964;-60
2024/01/09 06:28:05;;;;;;;2.53;1.70;;;;;;;-7.10;100.00;100130.81;5109615;28;20447;-59
2024/01/09 06:30:34;;;;;;;4.83;0.90;;;;;;;-6.93;100.00;100132.72;5109247;28;20451;-59
2024/01/09 06:33:01;;;;;;;1.60;1.03;;;;;;;-6.98;100.00;100136.78;5109180;28;21262;-60
2024/01/09 06:35:28;;;;;;;0.53;0.53;;;;;;;-6.94;100.00;100153.44;5109336;28;20490;-58
2024/01/09 06:37:55;;;;;;;1.80;1.43;;;;;;;-7.01;100.00;100152.50;5109053;28;20963;-59
2024/01/09 06:40:23;;;;;;;2.13;1.50;;;;;;;-7.06;100.00;100159.03;5109034;28;20442;-60
2024/01/09 06:42:50;;;;;;;4.67;1.53;;;;;;;-6.98;100.00;100169.94;5109186;28;20462;-59
2024/01/09 06:45:17;;;;;;;3.07;2.00;;;;;;;-7.02;100.00;100173.19;5109178;28;20446;-59
2024/01/09 06:47:45;;;;;;;0.53;0.53;;;;;;;-6.90;100.00;100182.47;5109070;28;20814;-59
2024/01/09 06:50:13;;;;;;;1.70;1.07;;;;;;;-7.02;100.00;100197.19;5108726;28;20478;-59
2024/01/09 06:52:39;;;;;;;5.13;3.03;;;;;;;-7.03;100.00;100205.47;5109087;28;20443;-59
2024/01/09 06:55:07;;;;;;;2.37;1.17;;;;;;;-6.99;100.00;100212.16;5108767;28;20491;-59
2024/01/09 06:57:33;;;;;;;0.77;0.77;;;;;;;-6.94;100.00;100215.56;5109026;28;20464;-60
2024/01/09 07:00:00;;;;;;;5.30;1.93;;;;;;;-7.01;100.00;100218.75;5108691;28;20447;-60
2024/01/09 07:02:27;;;;;;;1.37;1.10;;;;;;;-6.98;100.00;100224.63;5108800;28;20821;-60
2024/01/09 07:04:56;;;;;;;0.20;0.20;;;;;;;-6.95;100.00;100238.72;5108777;28;20451;-60
2024/01/09 07:07:23;;;;;;;1.37;0.77;;;;;;;-6.88;100.00;100241.34;5108633;28;20451;-59
2024/01/09 07:09:50;;;;;;;4.33;2.27;;;;;;;-6.86;100.00;100252.19;5108495;28;20451;-60
2024/01/09 07:12:17;;;;;;;3.73;2.63;;;;;;;-6.95;100.00;100244.56;5108910;28;20880;-60
2024/01/09 07:14:45;;;;;;;0.97;0.90;;;;;;;-6.90;100.00;100257.06;5108589;28;20547;-59
2024/01/09 07:17:12;;;;;;;0.73;0.73;;;;;;;-6.83;100.00;100261.34;5108938;28;21026;-60
2024/01/09 07:19:38;;;;;;;5.10;2.60;;;;;;;-6.96;100.00;100264.41;5108736;28;20446;-59
2024/01/09 07:22:07;;;;;;;1.30;1.20;;;;;;;-6.95;100.00;100273.53;5108695;28;20443;-60
2024/01/09 07:24:34;;;;;;;0.60;0.60;;;;;;;-6.84;100.00;100277.03;5109139;28;20447;-59
2024/01/09 07:27:01;;;;;;;0.83;0.57;;;;;;;-6.82;100.00;100270.47;5108638;28;20466;-61
2024/01/09 07:29:28;;;;;;;2.23;1.07;;;;;;;-6.83;100.00;100273.78;5108693;28;20839;-60
2024/01/09 07:31:55;;;;;;;0.73;0.73;;;;;;;-6.79;100.00;100289.56;5108748;28;20459;-60
2024/01/09 07:34:22;;;;;;;0.40;0.40;;;;;;;-6.68;100.00;100296.41;5108634;28;20490;-60
2024/01/09 07:36:48;;;;;;;0.33;0.33;;;;;;;-6.61;100.00;100298.16;5108705;28;20443;-60
2024/01/09 07:39:17;;;;;;;0.63;0.63;;;;;;;-6.73;100.00;100304.59;5108439;28;20869;-60
2024/01/09 07:41:43;;;;;;;0.63;0.63;;;;;;;-6.59;100.00;100302.34;5108548;28;20467;-59
2024/01/09 07:44:11;;;;;;;0.83;0.63;;;;;;;-6.66;100.00;100302.25;5108572;28;20450;-60
2024/01/09 07:46:38;;;;;;;1.20;0.63;;;;;;;-6.63;100.00;100311.41;5108333;28;20611;-60
2024/01/09 07:49:05;;;;;;;1.10;0.93;;;;;;;-6.57;100.00;100315.63;5108634;28;20475;-60
2024/01/09 07:51:32;;;;;;;1.77;0.97;;;;;;;-6.58;100.00;100311.47;5108880;28;20470;-59
2024/01/09 07:53:59;;;;;;;0.10;0.10;;;;;;;-6.55;100.00;100316.50;5108772;28;20494;-59
2024/01/09 07:56:27;;;;;;;0.47;0.47;;;;;;;-6.43;100.00;100316.69;5108238;28;20454;-60
2024/01/09 07:58:54;;;;;;;2.37;1.40;;;;;;;-6.39;100.00;100326.72;5108187;28;20453;-60
2024/01/09 08:01:21;;;;;;;0.40;0.40;;;;;;;-6.32;100.00;100336.78;5110043;28;20843;-59
2024/01/09 08:03:48;;;;;;;0.83;0.83;;;;;;;-6.33;100.00;100340.94;5111875;28;20439;-60
2024/01/09 08:06:16;;;;;;;0.57;0.57;;;;;;;-6.46;100.00;100344.84;5111833;28;20450;-59
2024/01/09 08:08:43;;;;;;;0.10;0.10;;;;;;;-6.37;100.00;100339.19;5112086;28;20469;-59
2024/01/09 08:11:11;;;;;;;0.50;0.50;;;;;;;-6.34;100.00;100354.19;5111880;28;20827;-59
2024/01/09 08:13:39;;;;;;;0.30;0.30;;;;;;;-6.20;100.00;100352.75;5111795;28;20439;-59
2024/01/09 08:16:08;;;;;;;0.20;0.20;;;;;;;-6.30;100.00;100355.91;5111725;28;21002;-60
2024/01/09 08:18:34;;;;;;;0.30;0.30;;;;;;;-6.28;100.00;100358.41;5111666;28;20443;-59
2024/01/09 08:21:01;;;;;;;0.20;0.20;;;;;;;-6.29;100.00;100357.56;5112049;28;20451;-60
2024/01/09 08:23:28;;;;;;;1.80;1.70;;;;;;;-6.19;100.00;100364.38;5111625;28;20462;-60
2024/01/09 08:25:55;;;;;;;0.67;0.67;;;;;;;-6.26;100.00;100362.59;5111624;27;20474;-60
2024/01/09 08:28:22;;;;;;;0.47;0.40;;;;;;;-6.04;100.00;100362.97;5111486;28;20470;-60
2024/01/09 08:30:50;;;;;;;3.30;2.00;;;;;;;-6.12;100.00;100374.44;5110565;28;20632;-60
2024/01/09 08:33:17;;;;;;;0.20;0.20;;;;;;;-5.91;100.00;100370.59;5110492;28;20451;-60
2024/01/09 08:35:49;;;;;;;2.50;1.60;;;;;;;-6.10;100.00;100373.66;5110926;28;20491;-60
2024/01/09 08:38:16;;;;;;;3.53;2.23;;;;;;;-6.18;100.00;100373.53;5111607;28;20508;-60
2024/01/09 08:40:43;;;;;;;3.77;1.03;;;;;;;-6.22;100.00;100369.31;5111304;28;20446;-59
2024/01/09 08:43:10;;;;;;;9.60;6.23;;;;;;;-6.29;100.00;100367.53;5111203;28;20548;-60
2024/01/09 08:45:38;;;;;;;3.40;2.03;;;;;;;-6.25;100.00;100374.25;5111176;28;20447;-60
2024/01/09 08:48:07;;;;;;;0.20;0.20;;;;;;;-6.26;100.00;100376.69;5111327;28;20906;-60
2024/01/09 08:50:34;;;;;;;4.10;1.53;;;;;;;-6.24;100.00;100380.88;5111136;28;20838;-60
2024/01/09 08:53:00;;;;;;;1.43;1.33;;;;;;;-6.22;100.00;100374.31;5111097;28;20997;-59
2024/01/09 08:55:27;;;;;;;1.07;0.97;;;;;;;-6.11;100.00;100381.09;5110945;28;20509;-60
2024/01/09 08:57:54;;;;;;;1.93;1.37;;;;;;;-6.22;100.00;100374.31;5111124;28;20455;-60
2024/01/09 09:00:21;;;;;;;0.73;0.73;;;;;;;-6.21;100.00;100373.47;5110996;28;20447;-60
2024/01/09 09:02:48;;;;;;;2.00;0.80;;;;;;;-6.35;100.00;100381.53;5110860;28;20830;-60
2024/01/09 09:05:16;;;;;;;1.53;1.33;;;;;;;-6.41;100.00;100387.22;5110704;28;20822;-60
2024/01/09 09:07:43;;;;;;;2.73;2.03;;;;;;;-6.36;100.00;100387.31;5110647;28;20451;-60
2024/01/09 09:10:10;;;;;;;0.23;0.23;;;;;;;-6.35;100.00;100391.47;5110761;28;20473;-60
2024/01/09 09:12:37;;;;;;;0.47;0.47;;;;;;;-6.33;100.00;100400.66;5110526;28;20442;-60
2024/01/09 09:15:04;;;;;;;1.43;1.10;;;;;;;-6.36;100.00;100398.09;5110823;28;20563;-60
2024/01/09 09:17:32;;;;;;;5.17;1.60;;;;;;;-6.38;100.00;100403.03;5110878;28;20450;-60
2024/01/09 09:19:58;;;;;;;6.97;2.87;;;;;;;-6.54;100.00;100400.28;5110581;28;20447;-60
2024/01/09 09:22:29;;;;;;;1.23;0.80;;;;;;;-6.49;100.00;100393.72;5110531;28;20810;-60
2024/01/09 09:24:56;;;;;;;2.37;1.77;;;;;;;-6.53;100.00;100392.00;5110572;28;20445;-60
2024/01/09 09:27:23;;;;;;;0.63;0.63;;;;;;;-6.35;100.00;100379.88;5110344;28;20454;-60
2024/01/09 09:29:52;;;;;;;0.73;0.73;;;;;;;-6.44;100.00;100385.53;5110470;28;20447;-60
2024/01/09 09:32:19;;;;;;;2.43;1.10;;;;;;;-6.45;100.00;100396.31;5110657;28;20809;-60
2024/01/09 09:34:46;;;;;;;2.07;0.87;;;;;;;-6.49;100.00;100401.19;5110064;28;20490;-59
2024/01/09 09:37:12;;;;;;;1.40;0.83;;;;;;;-6.46;100.00;100399.56;5110171;28;20443;-60
2024/01/09 09:39:41;;;;;;;0.87;0.60;;;;;;;-6.45;100.00;100406.25;5110234;28;20443;-60
2024/01/09 09:42:10;;;;;;;2.07;1.40;;;;;;;-6.49;100.00;100413.63;5110239;28;20455;-60
2024/01/09 09:44:38;;;;;;;0.20;0.20;;;;;;;-6.59;100.00;100419.25;5110115;28;20458;-60
2024/01/09 09:47:07;;;;;;;0.80;0.80;;;;;;;-6.64;100.00;100422.47;5110246;28;20454;-59
2024/01/09 09:49:38;;;;;;;0.10;0.10;;;;;;;-6.49;100.00;100428.53;5110045;28;20962;-60
2024/01/09 09:52:05;;;;;;;1.97;1.17;;;;;;;-6.68;100.00;100423.25;5110482;28;20470;-61
2024/01/09 09:54:33;;;;;;;0.83;0.57;;;;;;;-6.64;100.00;100424.13;5109825;28;21042;-60
2024/01/09 09:57:01;;;;;;;5.27;1.20;;;;;;;-6.66;100.00;100416.66;5110179;28;20963;-60
2024/01/09 09:59:28;;;;;;;0.30;0.30;;;;;;;-6.70;100.00;100427.34;5109758;28;20552;-59
2024/01/09 10:01:56;;;;;;;1.30;1.00;;;;;;;-6.72;100.00;100421.50;5109670;28;20462;-59
2024/01/09 10:04:30;;;;;;;2.17;0.87;;;;;;;-6.71;100.00;100428.16;5109726;28;20447;-59
2024/01/09 10:06:58;;;;;;;1.63;1.40;;;;;;;-6.92;100.00;100422.75;5109747;28;20447;-59
2024/01/09 10:09:32;;;;;;;2.87;2.50;;;;;;;-6.83;100.00;100432.91;5109426;28;20451;-59
2024/01/09 10:11:58;;;;;;;0.70;0.70;;;;;;;-6.80;100.00;100427.97;5109635;28;20871;-60
2024/01/09 10:14:27;;;;;;;0.73;0.50;;;;;;;-6.74;100.00;100433.06;5109357;28;20457;-60
2024/01/09 10:16:55;;;;;;;1.17;0.87;;;;;;;-6.66;100.00;100429.09;5109392;28;20847;-60
2024/01/09 10:19:22;;;;;;;0.40;0.40;;;;;;;-6.65;100.00;100433.25;5109729;28;20443;-60
2024/01/09 10:21:49;;;;;;;0.20;0.20;;;;;;;-6.55;100.00;100433.41;5109706;28;20446;-60
2024/01/09 10:24:17;;;;;;;0.90;0.77;;;;;;;-6.67;100.00;100419.94;5108632;28;20538;-60
2024/01/09 10:26:44;;;;;;;0.50;0.50;;;;;;;-6.66;100.00;100426.59;5109589;28;20447;-60
2024/01/09 10:29:11;;;;;;;0.50;0.50;;;;;;;-6.78;100.00;100426.34;5109105;28;20447;-60
2024/01/09 10:31:44;;;;;;;1.30;0.50;;;;;;;-6.68;100.00;100427.38;5109180;28;20446;-60
2024/01/09 10:34:11;;;;;;;5.00;2.10;;;;;;;-6.69;100.00;100431.53;5109111;28;20490;-60
2024/01/09 10:36:38;;;;;;;0.23;0.23;;;;;;;-6.58;100.00;100423.41;5109297;28;20491;-60
2024/01/09 10:39:05;;;;;;;1.10;0.63;;;;;;;-6.52;100.00;100421.84;5109409;28;20447;-60
2024/01/09 10:41:33;;;;;;;0.27;0.27;;;;;;;-6.77;100.00;100423.06;5109267;28;20494;-60
2024/01/09 10:44:00;;;;;;;2.80;1.80;;;;;;;-6.80;100.00;100424.66;5109103;28;20535;-60
2024/01/09 10:46:31;;;;;;;1.20;0.73;;;;;;;-6.79;100.00;100419.69;5108963;28;20453;-60
2024/01/09 10:49:00;;;;;;;0.20;0.20;;;;;;;-6.79;100.00;100424.69;5109143;28;20948;-60
2024/01/09 10:51:27;;;;;;;2.00;0.90;;;;;;;-6.76;100.00;100427.22;5109146;28;20471;-60
2024/01/09 10:53:56;;;;;;;1.33;0.80;;;;;;;-6.79;100.00;100429.66;5108794;28;21241;-60
2024/01/09 10:56:24;;;;;;;1.80;0.67;;;;;;;-6.84;100.00;100431.19;5109546;28;20500;-60
2024/01/09 10:58:51;;;;;;;1.03;0.97;;;;;;;-6.89;100.00;100437.75;5108793;28;20450;-60
2024/01/09 11:01:18;;;;;;;0.10;0.10;;;;;;;-6.89;100.00;100438.59;5109382;28;20443;-60
2024/01/09 11:03:45;;;;;;;4.77;1.87;;;;;;;-6.98;100.00;100440.03;5107408;28;20974;-60
2024/01/09 11:06:16;;;;;;;3.47;2.10;;;;;;;-7.06;100.00;100430.78;5107970;28;20443;-59
2024/01/09 11:08:48;;;;;;;1.23;1.13;;;;;;;-7.12;100.00;100435.63;5108777;28;20842;-60
2024/01/09 11:11:17;;;;;;;0.90;0.63;;;;;;;-7.04;100.00;100438.25;5109011;28;20507;-60
2024/01/09 11:13:47;;;;;;;2.07;1.03;;;;;;;-7.12;100.00;100435.63;5108718;28;20450;-60
2024/01/09 11:16:15;;;;;;;2.00;1.67;;;;;;;-7.07;100.00;100425.75;5108669;28;20482;-60
2024/01/09 11:18:44;;;;;;;0.67;0.47;;;;;;;-7.01;100.00;100430.03;5108878;28;20475;-60